createdAt,value
2023-03-16T00:00:47.942Z,93.88
2023-03-16T00:03:22.006Z,93.89
2023-03-16T00:05:52.494Z,94.26
2023-03-16T00:08:25.133Z,94.06
2023-03-16T00:10:54.405Z,94.02
2023-03-16T00:13:24.833Z,93.97
2023-03-16T00:16:05.610Z,94.05
2023-03-16T00:18:39.289Z,94.02
2023-03-16T00:21:07.783Z,93.84
2023-03-16T00:23:38.406Z,93.78
2023-03-16T00:26:09.149Z,93.75
2023-03-16T00:28:39.984Z,93.60
2023-03-16T00:31:12.265Z,93.78
2023-03-16T00:33:48.696Z,93.71
2023-03-16T00:36:19.005Z,94.13
2023-03-16T00:38:49.357Z,93.80
2023-03-16T00:41:17.937Z,93.72
2023-03-16T00:43:49.078Z,93.69
2023-03-16T00:46:20.278Z,93.52
2023-03-16T00:48:48.932Z,93.51
2023-03-16T00:51:19.420Z,93.64
2023-03-16T00:53:50.832Z,93.27
2023-03-16T00:56:20.366Z,93.32
2023-03-16T00:58:49.787Z,93.06
2023-03-16T01:01:20.494Z,93.28
2023-03-16T01:03:51.148Z,93.12
2023-03-16T01:06:20.885Z,93.15
2023-03-16T01:08:49.750Z,93.14
2023-03-16T01:11:20.095Z,93.14
2023-03-16T01:13:50.916Z,93.04
2023-03-16T01:16:19.646Z,93.15
2023-03-16T01:18:52.691Z,93.04
2023-03-16T01:21:22.868Z,93.03
2023-03-16T01:23:54.123Z,93.13
2023-03-16T01:26:26.478Z,93.09
2023-03-16T01:28:55.662Z,93.19
2023-03-16T01:31:25.933Z,93.05
2023-03-16T01:33:55.761Z,92.77
2023-03-16T01:36:35.434Z,92.75
2023-03-16T01:39:06.957Z,93.13
2023-03-16T01:41:43.133Z,93.25
2023-03-16T01:44:16.269Z,93.13
2023-03-16T01:46:44.957Z,93.29
2023-03-16T01:49:15.690Z,93.36
2023-03-16T01:52:10.438Z,93.35
2023-03-16T01:55:08.136Z,93.33
2023-03-16T01:57:43.236Z,93.48
2023-03-16T02:00:21.240Z,93.59
2023-03-16T02:03:25.128Z,93.30
2023-03-16T02:06:03.879Z,93.32
2023-03-16T02:08:33.786Z,93.41
2023-03-16T02:11:05.115Z,93.26
2023-03-16T02:13:48.125Z,93.09
2023-03-16T02:16:19.797Z,92.83
2023-03-16T02:18:49.398Z,93.04
2023-03-16T02:21:40.131Z,92.86
2023-03-16T02:24:28.492Z,92.38
2023-03-16T02:26:59.702Z,92.70
2023-03-16T02:29:43.714Z,92.22
2023-03-16T02:32:13.907Z,92.09
2023-03-16T02:34:43.273Z,92.07
2023-03-16T02:37:15.370Z,91.92
2023-03-16T02:39:44.991Z,91.80
2023-03-16T02:42:17.203Z,91.69
2023-03-16T02:44:48.877Z,91.38
2023-03-16T02:47:32.499Z,91.47
2023-03-16T02:50:08.338Z,91.41
2023-03-16T02:52:38.583Z,91.32
2023-03-16T02:55:07.565Z,91.41
2023-03-16T02:57:36.632Z,91.56
2023-03-16T03:03:47.438Z,91.60
2023-03-16T03:06:15.165Z,91.55
2023-03-16T03:08:43.128Z,91.75
2023-03-16T03:11:11.346Z,91.56
2023-03-16T03:13:44.132Z,91.62
2023-03-16T03:16:14.951Z,91.49
2023-03-16T03:18:45.427Z,91.52
2023-03-16T03:21:18.129Z,91.62
2023-03-16T03:23:46.693Z,91.40
2023-03-16T03:26:16.031Z,91.39
2023-03-16T03:28:48.920Z,91.25
2023-03-16T03:31:18.442Z,91.46
2023-03-16T03:33:49.521Z,91.20
2023-03-16T03:36:19.593Z,90.89
2023-03-16T03:38:50.253Z,90.69
2023-03-16T03:41:22.520Z,90.36
2023-03-16T03:43:53.477Z,90.54
2023-03-16T03:46:29.519Z,90.23
2023-03-16T03:49:03.327Z,90.30
2023-03-16T03:51:35.982Z,90.42
2023-03-16T03:54:16.164Z,90.10
2023-03-16T03:56:49.658Z,90.38
2023-03-16T03:59:20.840Z,90.42
2023-03-16T04:02:16.500Z,90.19
2023-03-16T04:04:58.420Z,90.07
2023-03-16T04:14:09.465Z,89.48
2023-03-16T04:16:39.110Z,89.74
2023-03-16T04:19:07.507Z,89.52
2023-03-16T04:21:38.109Z,89.38
2023-03-16T04:24:09.308Z,89.52
2023-03-16T04:26:41.418Z,89.33
2023-03-16T04:29:13.647Z,89.39
2023-03-16T04:31:44.282Z,89.60
2023-03-16T04:34:11.590Z,89.28
2023-03-16T04:36:39.955Z,89.67
2023-03-16T04:39:08.955Z,89.91
2023-03-16T04:41:36.388Z,90.00
2023-03-16T04:44:13.211Z,90.17
2023-03-16T04:46:43.891Z,90.29
2023-03-16T04:49:16.713Z,90.43
2023-03-16T04:51:51.019Z,90.39
2023-03-16T04:54:21.710Z,90.66
2023-03-16T04:56:49.499Z,90.53
2023-03-16T04:59:35.339Z,90.64
2023-03-16T05:02:22.855Z,90.40
2023-03-16T05:04:51.268Z,90.53
2023-03-16T05:07:24.718Z,90.22
2023-03-16T05:09:55.477Z,89.86
2023-03-16T05:12:23.023Z,90.06
2023-03-16T05:14:56.036Z,90.09
2023-03-16T05:17:44.213Z,90.27
2023-03-16T05:20:16.038Z,90.10
2023-03-16T05:22:47.931Z,90.06
2023-03-16T05:25:20.347Z,90.17
2023-03-16T05:27:51.152Z,90.16
2023-03-16T05:30:38.341Z,89.81
2023-03-16T05:33:09.471Z,89.75
2023-03-16T05:35:37.801Z,89.89
2023-03-16T05:38:08.750Z,89.61
2023-03-16T05:40:37.750Z,89.69
2023-03-16T05:43:13.130Z,89.39
2023-03-16T05:45:46.498Z,89.25
2023-03-16T05:48:16.776Z,89.44
2023-03-16T05:50:51.880Z,89.39
2023-03-16T05:53:28.295Z,89.51
2023-03-16T05:55:59.192Z,89.54
2023-03-16T05:58:27.214Z,89.48
2023-03-16T06:00:55.906Z,89.37
2023-03-16T06:03:28.784Z,89.37
2023-03-16T06:05:57.453Z,89.02
2023-03-16T06:08:30.607Z,88.97
2023-03-16T06:11:05.573Z,88.76
2023-03-16T06:13:33.040Z,88.77
2023-03-16T06:16:01.411Z,88.90
2023-03-16T06:18:29.339Z,89.02
2023-03-16T06:21:00.136Z,88.97
2023-03-16T06:23:28.766Z,89.00
2023-03-16T06:25:56.123Z,89.09
2023-03-16T06:28:26.410Z,89.09
2023-03-16T06:30:55.367Z,89.17
2023-03-16T06:33:24.440Z,89.14
2023-03-16T06:35:54.520Z,89.12
2023-03-16T06:38:29.757Z,89.39
2023-03-16T06:41:05.276Z,89.43
2023-03-16T06:43:35.898Z,89.38
2023-03-16T06:46:04.742Z,89.32
2023-03-16T06:48:49.784Z,89.31
2023-03-16T06:51:23.071Z,89.35
2023-03-16T06:53:50.477Z,89.68
2023-03-16T06:56:18.960Z,89.81
2023-03-16T06:58:48.805Z,90.02
2023-03-16T07:01:19.661Z,90.21
2023-03-16T07:03:49.061Z,90.27
2023-03-16T07:06:20.654Z,90.29
2023-03-16T07:08:50.218Z,90.33
2023-03-16T07:11:22.857Z,90.52
2023-03-16T07:14:01.551Z,90.41
2023-03-16T07:16:31.771Z,90.34
2023-03-16T07:19:01.528Z,90.38
2023-03-16T07:21:29.090Z,90.50
2023-03-16T07:23:57.497Z,90.67
2023-03-16T07:26:26.764Z,90.78
2023-03-16T07:28:58.312Z,90.70
2023-03-16T07:31:25.800Z,90.66
2023-03-16T07:33:53.628Z,90.54
2023-03-16T07:36:28.272Z,90.54
2023-03-16T07:38:57.887Z,90.59
2023-03-16T07:41:25.602Z,90.36
2023-03-16T07:43:53.533Z,90.43
2023-03-16T07:46:27.968Z,90.77
2023-03-16T07:48:55.895Z,90.93
2023-03-16T07:51:24.821Z,90.97
2023-03-16T07:53:53.882Z,90.72
2023-03-16T07:56:42.284Z,90.70
2023-03-16T07:59:38.182Z,90.82
2023-03-16T08:02:06.052Z,90.88
2023-03-16T08:04:33.876Z,90.93
2023-03-16T08:07:03.010Z,91.13
2023-03-16T08:09:42.292Z,91.18
2023-03-16T08:12:11.410Z,91.12
2023-03-16T08:14:41.356Z,91.14
2023-03-16T08:17:18.491Z,91.04
2023-03-16T08:19:48.353Z,90.87
2023-03-16T08:22:17.460Z,90.99
2023-03-16T08:24:45.961Z,90.98
2023-03-16T08:27:20.564Z,91.07
2023-03-16T08:29:56.594Z,91.13
2023-03-16T08:32:30.644Z,91.10
2023-03-16T08:35:01.002Z,91.21
2023-03-16T08:37:29.674Z,91.29
2023-03-16T08:40:01.257Z,91.35
2023-03-16T08:42:33.291Z,91.08
2023-03-16T08:45:13.593Z,91.12
2023-03-16T08:47:45.246Z,91.29
2023-03-16T08:50:13.316Z,91.13
2023-03-16T08:52:43.051Z,91.11
2023-03-16T08:55:10.798Z,91.18
2023-03-16T08:57:41.239Z,91.37
2023-03-16T09:00:13.321Z,91.69
2023-03-16T09:02:41.380Z,91.74
2023-03-16T09:05:12.893Z,91.86
2023-03-16T09:07:41.981Z,91.58
2023-03-16T09:10:13.308Z,91.49
2023-03-16T09:12:43.939Z,91.62
2023-03-16T09:15:19.419Z,91.60
2023-03-16T09:17:50.659Z,91.87
2023-03-16T09:20:22.827Z,92.13
2023-03-16T09:22:57.687Z,92.09
2023-03-16T09:25:26.610Z,91.97
2023-03-16T09:27:53.780Z,92.05
2023-03-16T09:30:21.400Z,92.21
2023-03-16T09:32:50.579Z,92.36
2023-03-16T09:35:19.143Z,92.36
2023-03-16T09:38:04.655Z,92.35
2023-03-16T09:40:36.003Z,92.66
2023-03-16T09:43:16.854Z,92.35
2023-03-16T09:46:04.987Z,92.53
2023-03-16T09:48:36.351Z,92.72
2023-03-16T09:51:23.874Z,92.64
2023-03-16T09:53:56.486Z,92.85
2023-03-16T09:56:38.260Z,92.82
2023-03-16T09:59:19.999Z,92.95
2023-03-16T10:02:04.073Z,92.70
2023-03-16T10:05:16.072Z,92.59
2023-03-16T10:08:02.577Z,92.39
2023-03-16T10:11:22.352Z,92.58
2023-03-16T10:14:04.295Z,92.39
2023-03-16T10:16:37.195Z,92.65
2023-03-16T10:19:15.840Z,92.48
2023-03-16T10:21:44.559Z,92.40
2023-03-16T10:24:30.694Z,92.30
2023-03-16T10:27:00.505Z,92.40
2023-03-16T10:29:28.920Z,92.56
2023-03-16T10:32:22.387Z,92.46
2023-03-16T10:34:57.120Z,92.33
2023-03-16T10:37:27.949Z,92.14
2023-03-16T10:39:57.895Z,92.20
2023-03-16T10:42:27.382Z,92.45
2023-03-16T10:45:02.648Z,92.35
2023-03-16T10:47:35.783Z,92.30
2023-03-16T10:50:24.245Z,92.38
2023-03-16T10:52:57.635Z,92.55
2023-03-16T10:55:32.106Z,92.25
2023-03-16T10:58:11.850Z,92.22
2023-03-16T11:00:42.911Z,92.32
2023-03-16T11:03:31.896Z,92.23
2023-03-16T11:06:05.638Z,92.18
2023-03-16T11:08:36.930Z,92.05
2023-03-16T11:11:15.082Z,92.10
2023-03-16T11:13:47.624Z,91.95
2023-03-16T11:16:26.682Z,92.08
2023-03-16T11:18:58.075Z,92.34
2023-03-16T11:21:40.688Z,92.59
2023-03-16T11:24:20.721Z,92.78
2023-03-16T11:26:56.651Z,92.58
2023-03-16T11:29:44.809Z,92.65
2023-03-16T11:32:16.338Z,92.53
2023-03-16T11:34:43.352Z,92.41
2023-03-16T11:37:48.383Z,92.10
2023-03-16T11:40:36.691Z,91.84
2023-03-16T11:43:49.373Z,91.84
2023-03-16T11:46:29.949Z,91.65
2023-03-16T11:49:28.804Z,91.62
2023-03-16T11:52:37.979Z,91.45
2023-03-16T11:56:01.894Z,91.70
2023-03-16T11:58:50.804Z,91.79
2023-03-16T12:01:59.853Z,91.90
2023-03-16T12:05:23.992Z,91.98
2023-03-16T12:08:04.596Z,91.94
2023-03-16T12:14:19.993Z,92.11
2023-03-16T12:17:09.925Z,91.94
2023-03-16T12:23:16.851Z,91.76
2023-03-16T12:26:04.330Z,91.42
2023-03-16T12:28:50.246Z,91.41
2023-03-16T12:32:02.744Z,91.58
2023-03-16T12:35:20.947Z,91.95
2023-03-16T12:38:11.927Z,92.07
2023-03-16T12:41:21.434Z,92.17
2023-03-16T12:44:10.454Z,92.27
2023-03-16T12:47:17.207Z,92.31
2023-03-16T12:49:56.039Z,91.96
2023-03-16T12:52:26.360Z,92.12
2023-03-16T12:55:22.691Z,92.15
2023-03-16T12:58:00.604Z,92.51
2023-03-16T13:00:40.829Z,92.47
2023-03-16T13:03:20.066Z,92.69
2023-03-16T13:05:55.194Z,92.82
2023-03-16T13:08:23.896Z,92.58
2023-03-16T13:11:23.919Z,92.48
2023-03-16T13:14:19.193Z,92.39
2023-03-16T13:16:52.120Z,92.42
2023-03-16T13:19:28.612Z,92.59
2023-03-16T13:22:48.152Z,92.58
2023-03-16T13:25:36.416Z,92.29
2023-03-16T13:28:14.088Z,92.03
2023-03-16T13:30:50.192Z,92.10
2023-03-16T13:33:21.846Z,92.34
2023-03-16T13:35:51.852Z,92.59
2023-03-16T13:38:28.768Z,92.76
2023-03-16T13:40:57.771Z,92.64
2023-03-16T13:43:29.018Z,92.45
2023-03-16T13:45:56.988Z,92.28
2023-03-16T13:48:30.460Z,92.51
2023-03-16T13:50:58.598Z,92.45
2023-03-16T13:53:30.108Z,92.64
2023-03-16T13:56:09.024Z,92.93
2023-03-16T13:58:39.714Z,93.03
2023-03-16T14:01:29.708Z,93.22
2023-03-16T14:04:13.189Z,93.33
2023-03-16T14:06:55.597Z,93.20
2023-03-16T14:09:27.232Z,93.05
2023-03-16T14:11:57.673Z,92.84
2023-03-16T14:14:41.678Z,92.59
2023-03-16T14:17:13.726Z,92.47
2023-03-16T14:19:48.926Z,92.28
2023-03-16T14:22:23.526Z,92.63
2023-03-16T14:25:03.144Z,92.74
2023-03-16T14:27:46.457Z,92.66
2023-03-16T14:30:15.343Z,92.84
2023-03-16T14:33:01.691Z,92.78
2023-03-16T14:35:42.570Z,92.65
2023-03-16T14:38:36.072Z,92.68
2023-03-16T14:41:32.620Z,92.71
2023-03-16T14:44:03.741Z,92.53
2023-03-16T14:46:34.561Z,92.55
2023-03-16T14:49:37.270Z,92.50
2023-03-16T14:52:26.857Z,92.17
2023-03-16T14:54:56.347Z,92.27
2023-03-16T14:57:26.850Z,92.29
2023-03-16T14:59:55.189Z,92.26
2023-03-16T15:02:28.413Z,92.36
2023-03-16T15:04:59.418Z,92.22
2023-03-16T15:10:25.417Z,92.53
2023-03-16T15:13:13.407Z,92.42
2023-03-16T15:15:42.156Z,92.54
2023-03-16T15:18:16.770Z,92.61
2023-03-16T15:20:45.132Z,92.53
2023-03-16T15:23:15.990Z,92.44
2023-03-16T15:25:45.382Z,92.47
2023-03-16T15:28:20.332Z,92.49
2023-03-16T15:30:50.455Z,92.55
2023-03-16T15:33:20.653Z,92.57
2023-03-16T15:35:58.200Z,92.71
2023-03-16T15:38:27.381Z,92.87
2023-03-16T15:40:54.818Z,92.94
2023-03-16T15:43:31.658Z,92.87
2023-03-16T15:46:10.667Z,92.96
2023-03-16T15:48:38.106Z,92.93
2023-03-16T15:51:18.734Z,92.73
2023-03-16T15:53:50.123Z,92.83
2023-03-16T15:56:22.056Z,93.11
2023-03-16T15:58:58.238Z,93.04
2023-03-16T16:01:44.442Z,92.96
2023-03-16T16:04:23.196Z,92.98
2023-03-16T16:06:57.247Z,93.08
2023-03-16T16:09:25.245Z,93.13
2023-03-16T16:11:54.406Z,93.06
2023-03-16T16:14:30.239Z,92.77
2023-03-16T16:17:35.921Z,92.64
2023-03-16T16:20:22.174Z,92.54
2023-03-16T16:22:52.306Z,92.62
2023-03-16T16:25:20.893Z,92.69
2023-03-16T16:27:54.746Z,92.50
2023-03-16T16:30:45.858Z,92.64
2023-03-16T16:33:23.114Z,92.14
2023-03-16T16:35:51.099Z,92.25
2023-03-16T16:38:20.831Z,92.37
2023-03-16T16:40:58.177Z,92.35
2023-03-16T16:43:48.091Z,92.26
2023-03-16T16:46:23.515Z,92.00
2023-03-16T16:49:06.034Z,91.82
2023-03-16T16:51:34.935Z,91.79
2023-03-16T16:54:10.771Z,91.62
2023-03-16T16:56:39.680Z,91.59
2023-03-16T16:59:25.022Z,91.43
2023-03-16T17:01:58.808Z,91.27
2023-03-16T17:04:47.964Z,91.02
2023-03-16T17:07:32.922Z,90.67
2023-03-16T17:10:23.995Z,90.43
2023-03-16T17:13:14.308Z,90.43
2023-03-16T17:15:45.667Z,90.31
2023-03-16T17:18:32.341Z,90.24
2023-03-16T17:21:04.802Z,90.08
2023-03-16T17:23:40.066Z,89.93
2023-03-16T17:26:32.582Z,89.87
2023-03-16T17:29:02.318Z,89.66
2023-03-16T17:31:41.655Z,89.18
2023-03-16T17:34:23.008Z,89.10
2023-03-16T17:37:13.667Z,88.96
2023-03-16T17:39:42.260Z,88.95
2023-03-16T17:42:18.047Z,88.97
2023-03-16T17:44:50.770Z,88.45
2023-03-16T17:47:24.339Z,88.24
2023-03-16T17:49:52.606Z,88.20
2023-03-16T17:52:22.947Z,88.13
2023-03-16T17:54:52.040Z,88.30
2023-03-16T17:57:28.489Z,88.16
2023-03-16T17:59:57.510Z,88.20
2023-03-16T18:02:50.984Z,87.80
2023-03-16T18:05:28.448Z,87.70
2023-03-16T18:08:27.241Z,87.36
2023-03-16T18:10:57.210Z,86.97
2023-03-16T18:13:36.813Z,86.63
2023-03-16T18:16:06.631Z,86.61
2023-03-16T18:18:37.787Z,86.56
2023-03-16T18:21:22.348Z,86.47
2023-03-16T18:23:52.829Z,86.39
2023-03-16T18:26:24.100Z,86.28
2023-03-16T18:28:52.957Z,86.20
2023-03-16T18:31:25.789Z,85.87
2023-03-16T18:34:04.594Z,85.99
2023-03-16T18:36:35.828Z,85.89
2023-03-16T18:39:15.798Z,85.82
2023-03-16T18:41:50.523Z,85.56
2023-03-16T18:44:20.052Z,85.73
2023-03-16T18:46:51.422Z,85.63
2023-03-16T18:49:26.653Z,85.66
2023-03-16T18:51:54.109Z,85.65
2023-03-16T18:54:28.027Z,85.28
2023-03-16T18:57:03.714Z,85.56
2023-03-16T18:59:33.760Z,85.20
2023-03-16T19:02:02.258Z,85.34
2023-03-16T19:04:32.345Z,85.34
2023-03-16T19:07:05.404Z,85.32
2023-03-16T19:09:36.044Z,84.84
2023-03-16T19:12:06.806Z,84.66
2023-03-16T19:14:37.256Z,84.95
2023-03-16T19:17:11.872Z,84.55
2023-03-16T19:19:44.718Z,84.47
2023-03-16T19:22:20.390Z,84.28
2023-03-16T19:24:59.188Z,84.21
2023-03-16T19:27:34.961Z,84.41
2023-03-16T19:30:01.993Z,84.28
2023-03-16T19:32:31.149Z,84.34
2023-03-16T19:34:59.293Z,84.28
2023-03-16T19:37:29.834Z,83.99
2023-03-16T19:39:59.882Z,83.74
2023-03-16T19:42:38.187Z,83.85
2023-03-16T19:45:17.780Z,83.78
2023-03-16T19:47:49.478Z,83.67
2023-03-16T19:50:20.140Z,83.99
2023-03-16T19:52:50.396Z,83.80
2023-03-16T19:55:25.029Z,83.77
2023-03-16T19:58:01.124Z,84.16
2023-03-16T20:00:30.913Z,84.53
2023-03-16T20:02:58.427Z,84.67
2023-03-16T20:05:29.221Z,84.85
2023-03-16T20:07:58.413Z,85.14
2023-03-16T20:10:27.224Z,85.15
2023-03-16T20:12:58.613Z,85.51
2023-03-16T20:15:28.638Z,85.84
2023-03-16T20:17:56.675Z,85.79
2023-03-16T20:20:27.649Z,86.33
2023-03-16T20:22:57.936Z,86.36
2023-03-16T20:25:29.930Z,86.44
2023-03-16T20:28:01.005Z,86.32
2023-03-16T20:30:28.838Z,86.86
2023-03-16T20:32:57.956Z,87.03
2023-03-16T20:35:30.813Z,86.99
2023-03-16T20:38:00.520Z,86.98
2023-03-16T20:40:27.875Z,87.16
2023-03-16T20:42:56.048Z,87.05
2023-03-16T20:45:31.415Z,87.20
2023-03-16T20:47:59.060Z,87.13
2023-03-16T20:50:27.895Z,87.21
2023-03-16T20:52:55.808Z,87.48
2023-03-16T20:55:24.875Z,87.33
2023-03-16T20:57:55.773Z,87.52
2023-03-16T21:00:38.780Z,87.50
2023-03-16T21:03:24.908Z,87.42
2023-03-16T21:05:53.938Z,87.27
2023-03-16T21:08:21.350Z,87.55
2023-03-16T21:10:52.253Z,87.83
2023-03-16T21:13:28.097Z,87.85
2023-03-16T21:15:56.403Z,87.63
2023-03-16T21:18:28.105Z,87.78
2023-03-16T21:20:56.414Z,87.90
2023-03-16T21:23:25.268Z,88.00
2023-03-16T21:25:57.614Z,87.72
2023-03-16T21:28:25.493Z,87.77
2023-03-16T21:31:01.425Z,87.77
2023-03-16T21:33:42.358Z,87.62
2023-03-16T21:36:15.335Z,87.92
2023-03-16T21:38:45.667Z,87.65
2023-03-16T21:41:19.571Z,87.51
2023-03-16T21:43:54.345Z,87.55
2023-03-16T21:46:26.228Z,87.47
2023-03-16T21:48:54.303Z,87.44
2023-03-16T21:51:24.806Z,87.31
2023-03-16T21:53:57.865Z,87.67
2023-03-16T21:57:11.201Z,87.46
2023-03-16T21:59:54.039Z,87.19
2023-03-16T22:02:24.032Z,87.12
2023-03-16T22:04:53.018Z,87.38
2023-03-16T22:07:23.276Z,87.37
2023-03-16T22:09:53.786Z,87.41
2023-03-16T22:12:21.257Z,87.19
2023-03-16T22:14:54.448Z,86.98
2023-03-16T22:17:23.844Z,86.88
2023-03-16T22:19:52.737Z,87.16
2023-03-16T22:22:23.588Z,87.12
2023-03-16T22:24:51.696Z,87.00
2023-03-16T22:27:21.855Z,86.99
2023-03-16T22:29:49.669Z,86.79
2023-03-16T22:32:19.310Z,86.86
2023-03-16T22:37:26.801Z,87.10
2023-03-16T22:39:57.547Z,86.85
2023-03-16T22:42:37.711Z,86.72
2023-03-16T22:45:19.190Z,86.53
2023-03-16T22:47:50.487Z,86.59
2023-03-16T22:50:22.140Z,86.33
2023-03-16T22:52:54.182Z,86.30
2023-03-16T22:55:39.259Z,86.59
2023-03-16T22:58:20.816Z,86.43
2023-03-16T23:00:50.889Z,86.36
2023-03-16T23:03:21.457Z,86.33
2023-03-16T23:05:56.171Z,86.40
2023-03-16T23:08:26.917Z,86.19
2023-03-16T23:11:02.878Z,85.93
2023-03-16T23:13:31.670Z,86.04
2023-03-16T23:16:02.246Z,86.16
2023-03-16T23:18:30.915Z,86.42
2023-03-16T23:21:02.414Z,86.22
2023-03-16T23:23:34.685Z,86.34
2023-03-16T23:26:14.909Z,86.27
2023-03-16T23:28:45.419Z,86.27
2023-03-16T23:31:17.317Z,86.23
2023-03-16T23:33:48.994Z,86.19
2023-03-16T23:36:19.286Z,86.26
2023-03-16T23:38:50.640Z,86.11
2023-03-16T23:41:23.396Z,86.20
2023-03-16T23:43:58.525Z,85.95
2023-03-16T23:46:28.477Z,86.16
2023-03-16T23:48:58.277Z,86.32
2023-03-16T23:51:37.136Z,86.41
2023-03-16T23:54:35.518Z,86.33
2023-03-16T23:57:05.841Z,86.18
2023-03-16T23:59:35.750Z,86.49
